Time,TemperatureF,DewpointF,PressureIn,WindDirection,WindDirectionDegrees,WindSpeedMPH,WindSpeedGustMPH,Humidity,HourlyPrecipIn,Conditions,Clouds,dailyrainin,SoftwareType,DateUTC
2013-04-27 00:08:00,49.5,37.0,30.21,ESE,122,0.0,2.0,63,0.00,,,0.00,weatherlink.com 1.10,2013-04-27 07:08:00,
2013-04-27 00:23:00,48.2,37.0,30.21,East,91,2.0,3.0,66,0.00,,,0.00,weatherlink.com 1.10,2013-04-27 07:23:00,
2013-04-27 00:38:00,48.4,38.0,30.21,SSE,148,0.0,1.0,67,0.00,,,0.00,weatherlink.com 1.10,2013-04-27 07:38:00,
2013-04-27 00:53:00,48.9,38.0,30.20,SE,142,1.0,2.0,65,0.00,,,0.00,weatherlink.com 1.10,2013-04-27 07:53:00,
2013-04-27 01:08:00,49.0,37.0,30.20,SSW,204,0.0,2.0,63,0.00,,,0.00,weatherlink.com 1.10,2013-04-27 08:08:00,
2013-04-27 01:23:00,47.0,37.0,30.20,SSW,212,0.0,3.0,69,0.00,,,0.00,weatherlink.com 1.10,2013-04-27 08:23:00,
2013-04-27 01:38:00,45.8,37.0,30.20,SSE,162,0.0,1.0,71,0.00,,,0.00,weatherlink.com 1.10,2013-04-27 08:38:00,
2013-04-27 01:53:00,44.5,37.0,30.19,South,188,0.0,0.0,74,0.00,,,0.00,weatherlink.com 1.10,2013-04-27 08:53:00,
2013-04-27 02:08:00,43.4,37.0,30.18,NE,53,2.0,4.0,78,0.00,,,0.00,weatherlink.com 1.10,2013-04-27 09:08:00,
2013-04-27 02:23:00,43.7,37.0,30.18,SE,143,1.0,2.0,76,0.00,,,0.00,weatherlink.com 1.10,2013-04-27 09:23:00,
2013-04-27 02:38:00,43.9,36.0,30.18,SSE,148,0.0,2.0,75,0.00,,,0.00,weatherlink.com 1.10,2013-04-27 09:38:00,
2013-04-27 02:53:00,43.0,36.0,30.17,ENE,66,3.0,5.0,77,0.00,,,0.00,weatherlink.com 1.10,2013-04-27 09:53:00,
2013-04-27 03:08:00,44.0,36.0,30.17,SSW,209,0.0,2.0,74,0.00,,,0.00,weatherlink.com 1.10,2013-04-27 10:08:00,
2013-04-27 03:23:00,42.5,36.0,30.17,NNW,346,0.0,3.0,78,0.00,,,0.00,weatherlink.com 1.10,2013-04-27 10:23:00,
2013-04-27 03:38:00,42.6,36.0,30.17,SSW,194,0.0,4.0,78,0.00,,,0.00,weatherlink.com 1.10,2013-04-27 10:38:00,
2013-04-27 03:53:00,42.9,35.0,30.17,ESE,114,1.0,2.0,74,0.00,,,0.00,weatherlink.com 1.10,2013-04-27 10:53:00,
2013-04-27 04:08:00,47.0,34.0,30.17,ESE,120,4.0,8.0,61,0.00,,,0.00,weatherlink.com 1.10,2013-04-27 11:08:00,
2013-04-27 04:23:00,53.0,31.0,30.16,ESE,109,2.0,6.0,43,0.00,,,0.00,weatherlink.com 1.10,2013-04-27 11:23:00,
2013-04-27 04:38:00,53.4,31.0,30.17,SE,131,1.0,5.0,42,0.00,,,0.00,weatherlink.com 1.10,2013-04-27 11:38:00,
2013-04-27 04:53:00,54.0,34.0,30.16,SSE,158,0.0,2.0,47,0.00,,,0.00,weatherlink.com 1.10,2013-04-27 11:53:00,
2013-04-27 05:08:00,53.2,32.0,30.17,ESE,115,3.0,4.0,44,0.00,,,0.00,weatherlink.com 1.10,2013-04-27 12:08:00,
2013-04-27 05:23:00,54.4,30.0,30.17,East,96,2.0,4.0,40,0.00,,,0.00,weatherlink.com 1.10,2013-04-27 12:23:00,
2013-04-27 05:39:00,54.7,31.0,30.16,ESE,105,3.0,6.0,41,0.00,,,0.00,weatherlink.com 1.10,2013-04-27 12:39:00,
2013-04-27 05:53:00,54.9,30.0,30.16,ESE,115,0.0,7.0,38,0.00,,,0.00,weatherlink.com 1.10,2013-04-27 12:53:00,
2013-04-27 06:08:00,54.5,32.0,30.16,SSE,167,0.0,5.0,43,0.00,,,0.00,weatherlink.com 1.10,2013-04-27 13:08:00,
2013-04-27 06:23:00,52.7,32.0,30.16,NNW,340,0.0,4.0,46,0.00,,,0.00,weatherlink.com 1.10,2013-04-27 13:23:00,
2013-04-27 06:38:00,50.8,34.0,30.15,SSE,148,0.0,1.0,52,0.00,,,0.00,weatherlink.com 1.10,2013-04-27 13:38:00,
2013-04-27 06:53:00,49.2,35.0,30.15,South,175,0.0,0.0,58,0.00,,,0.00,weatherlink.com 1.10,2013-04-27 13:53:00,
2013-04-27 07:08:00,49.6,32.0,30.16,SW,232,2.0,3.0,52,0.00,,,0.00,weatherlink.com 1.10,2013-04-27 14:08:00,
2013-04-27 07:23:00,53.6,33.0,30.15,NNW,330,1.0,7.0,45,0.00,,,0.00,weatherlink.com 1.10,2013-04-27 14:23:00,
2013-04-27 07:38:00,55.1,32.0,30.16,NE,53,1.0,7.0,41,0.00,,,0.00,weatherlink.com 1.10,2013-04-27 14:38:00,
2013-04-27 07:54:00,56.1,32.0,30.15,East,97,2.0,9.0,40,0.00,,,0.00,weatherlink.com 1.10,2013-04-27 14:54:00,
2013-04-27 08:08:00,57.1,32.0,30.15,SE,139,1.0,6.0,39,0.00,,,0.00,weatherlink.com 1.10,2013-04-27 15:08:00,
2013-04-27 08:24:00,58.1,32.0,30.16,ENE,70,0.0,8.0,38,0.00,,,0.00,weatherlink.com 1.10,2013-04-27 15:24:00,
2013-04-27 08:39:00,59.0,32.0,30.14,NNE,19,1.0,8.0,36,0.00,,,0.00,weatherlink.com 1.10,2013-04-27 15:39:00,
2013-04-27 08:54:00,59.7,33.0,30.14,ENE,65,3.0,8.0,36,0.00,,,0.00,weatherlink.com 1.10,2013-04-27 15:54:00,
2013-04-27 09:09:00,59.3,34.0,30.14,East,86,2.0,8.0,39,0.00,,,0.00,weatherlink.com 1.10,2013-04-27 16:09:00,
2013-04-27 09:24:00,59.6,33.0,30.14,WNW,284,1.0,7.0,37,0.00,,,0.00,weatherlink.com 1.10,2013-04-27 16:24:00,
2013-04-27 09:39:00,60.8,33.0,30.14,East,85,2.0,7.0,35,0.00,,,0.00,weatherlink.com 1.10,2013-04-27 16:39:00,
2013-04-27 09:54:00,61.1,32.0,30.14,East,79,3.0,13.0,34,0.00,,,0.00,weatherlink.com 1.10,2013-04-27 16:54:00,
2013-04-27 10:09:00,62.1,32.0,30.13,NE,54,2.0,6.0,33,0.00,,,0.00,weatherlink.com 1.10,2013-04-27 17:09:00,
2013-04-27 10:24:00,61.8,31.0,30.15,West,281,2.0,9.0,32,0.00,,,0.00,weatherlink.com 1.10,2013-04-27 17:24:00,
2013-04-27 10:39:00,60.6,32.0,30.17,East,99,1.0,13.0,34,0.00,,,0.00,weatherlink.com 1.10,2013-04-27 17:39:00,
2013-04-27 10:54:00,59.2,36.0,30.19,SW,219,3.0,9.0,43,0.00,,,0.00,weatherlink.com 1.10,2013-04-27 17:54:00,
2013-04-27 11:09:00,55.9,38.0,30.21,South,187,0.0,7.0,51,0.00,,,0.00,weatherlink.com 1.10,2013-04-27 18:09:00,
2013-04-27 11:24:00,54.2,38.0,30.21,NW,322,0.0,6.0,55,0.00,,,0.00,weatherlink.com 1.10,2013-04-27 18:24:00,
2013-04-27 11:39:00,53.9,38.0,30.21,North,352,3.0,6.0,56,0.00,,,0.00,weatherlink.com 1.10,2013-04-27 18:39:00,
2013-04-27 11:54:00,53.1,38.0,30.21,NNE,19,7.0,10.0,58,0.00,,,0.00,weatherlink.com 1.10,2013-04-27 18:54:00,
2013-04-27 12:09:00,52.6,39.0,30.21,SSE,156,1.0,8.0,60,0.00,,,0.00,weatherlink.com 1.10,2013-04-27 19:09:00,
2013-04-27 12:24:00,52.6,40.0,30.20,ENE,63,3.0,11.0,62,0.00,,,0.00,weatherlink.com 1.10,2013-04-27 19:24:00,
2013-04-27 12:39:00,53.0,41.0,30.19,North,356,3.0,11.0,63,0.00,,,0.00,weatherlink.com 1.10,2013-04-27 19:39:00,
2013-04-27 12:54:00,53.2,41.0,30.18,NW,308,4.0,10.0,63,0.00,,,0.00,weatherlink.com 1.10,2013-04-27 19:54:00,
2013-04-27 13:09:00,52.6,41.0,30.18,NNW,333,2.0,23.0,65,0.00,,,0.00,weatherlink.com 1.10,2013-04-27 20:09:00,
2013-04-27 13:25:00,52.3,40.0,30.18,NE,34,8.0,11.0,63,0.00,,,0.00,weatherlink.com 1.10,2013-04-27 20:25:00,
2013-04-27 13:39:00,52.7,41.0,30.17,WNW,302,4.0,13.0,64,0.00,,,0.00,weatherlink.com 1.10,2013-04-27 20:39:00,
2013-04-27 13:54:00,53.3,40.0,30.18,ENE,78,4.0,12.0,62,0.00,,,0.00,weatherlink.com 1.10,2013-04-27 20:54:00,
2013-04-27 14:09:00,53.4,40.0,30.19,NNW,327,4.0,10.0,60,0.00,,,0.00,weatherlink.com 1.10,2013-04-27 21:09:00,
2013-04-27 14:24:00,53.3,40.0,30.18,East,94,2.0,10.0,62,0.00,,,0.00,weatherlink.com 1.10,2013-04-27 21:24:00,
2013-04-27 14:39:00,52.8,41.0,30.18,ENE,71,2.0,11.0,65,0.00,,,0.00,weatherlink.com 1.10,2013-04-27 21:39:00,
2013-04-27 14:54:00,52.3,40.0,30.18,NNW,327,6.0,10.0,64,0.00,,,0.00,weatherlink.com 1.10,2013-04-27 21:54:00,
2013-04-27 15:09:00,50.7,42.0,30.19,NNW,340,5.0,9.0,71,0.00,,,0.00,weatherlink.com 1.10,2013-04-27 22:09:00,
2013-04-27 15:24:00,50.2,41.0,30.18,North,4,10.0,10.0,70,0.00,,,0.00,weatherlink.com 1.10,2013-04-27 22:24:00,
2013-04-27 15:39:00,49.7,40.0,30.17,NNE,15,7.0,11.0,70,0.00,,,0.00,weatherlink.com 1.10,2013-04-27 22:39:00,
2013-04-27 15:55:00,50.0,41.0,30.17,NE,47,5.0,10.0,70,0.00,,,0.00,weatherlink.com 1.10,2013-04-27 22:55:00,
2013-04-27 16:09:00,49.9,39.0,30.17,NW,315,6.0,13.0,67,0.00,,,0.00,weatherlink.com 1.10,2013-04-27 23:09:00,
2013-04-27 16:24:00,50.0,39.0,30.17,WNW,294,6.0,10.0,67,0.00,,,0.00,weatherlink.com 1.10,2013-04-27 23:24:00,
2013-04-27 16:39:00,49.9,39.0,30.16,NNE,15,6.0,11.0,66,0.00,,,0.00,weatherlink.com 1.10,2013-04-27 23:39:00,
2013-04-27 16:54:00,50.3,39.0,30.16,NE,46,8.0,9.0,66,0.00,,,0.00,weatherlink.com 1.10,2013-04-27 23:54:00,
2013-04-27 17:09:00,50.1,39.0,30.16,ESE,109,5.0,13.0,66,0.00,,,0.00,weatherlink.com 1.10,2013-04-28 00:09:00,
2013-04-27 17:24:00,49.7,39.0,30.16,North,4,6.0,10.0,68,0.00,,,0.00,weatherlink.com 1.10,2013-04-28 00:24:00,
2013-04-27 17:39:00,49.7,39.0,30.15,SE,132,3.0,11.0,68,0.00,,,0.00,weatherlink.com 1.10,2013-04-28 00:39:00,
2013-04-27 17:54:00,49.6,40.0,30.16,NW,322,4.0,9.0,69,0.00,,,0.00,weatherlink.com 1.10,2013-04-28 00:54:00,
2013-04-27 18:09:00,49.6,40.0,30.15,NNW,345,4.0,12.0,69,0.00,,,0.00,weatherlink.com 1.10,2013-04-28 01:09:00,
2013-04-27 18:24:00,49.4,40.0,30.15,ENE,77,1.0,7.0,70,0.00,,,0.00,weatherlink.com 1.10,2013-04-28 01:24:00,
2013-04-27 18:39:00,49.5,40.0,30.14,NW,305,2.0,7.0,70,0.00,,,0.00,weatherlink.com 1.10,2013-04-28 01:39:00,
2013-04-27 18:54:00,49.7,40.0,30.15,NE,51,1.0,7.0,69,0.00,,,0.00,weatherlink.com 1.10,2013-04-28 01:54:00,
2013-04-27 19:09:00,49.5,40.0,30.15,ESE,109,1.0,7.0,70,0.00,,,0.00,weatherlink.com 1.10,2013-04-28 02:09:00,
2013-04-27 19:24:00,49.3,40.0,30.16,ESE,108,2.0,5.0,70,0.00,,,0.00,weatherlink.com 1.10,2013-04-28 02:24:00,
2013-04-27 19:39:00,49.3,40.0,30.16,ESE,117,0.0,4.0,71,0.00,,,0.00,weatherlink.com 1.10,2013-04-28 02:39:00,
2013-04-27 19:54:00,49.2,40.0,30.15,SE,125,3.0,8.0,71,0.00,,,0.00,weatherlink.com 1.10,2013-04-28 02:54:00,
2013-04-27 20:09:00,49.0,40.0,30.15,ENE,69,6.0,6.0,72,0.00,,,0.00,weatherlink.com 1.10,2013-04-28 03:09:00,
2013-04-27 20:24:00,48.9,40.0,30.14,SW,235,2.0,9.0,72,0.00,,,0.00,weatherlink.com 1.10,2013-04-28 03:24:00,
2013-04-27 20:39:00,48.9,40.0,30.14,West,274,2.0,8.0,72,0.00,,,0.00,weatherlink.com 1.10,2013-04-28 03:39:00,
2013-04-27 20:54:00,48.7,40.0,30.15,NE,43,7.0,11.0,73,0.00,,,0.00,weatherlink.com 1.10,2013-04-28 03:54:00,
2013-04-27 21:09:00,48.8,40.0,30.15,NNW,340,3.0,14.0,72,0.00,,,0.00,weatherlink.com 1.10,2013-04-28 04:09:00,
2013-04-27 21:24:00,48.9,40.0,30.16,East,96,3.0,9.0,71,0.00,,,0.00,weatherlink.com 1.10,2013-04-28 04:24:00,
2013-04-27 21:39:00,49.1,40.0,30.16,ESE,110,2.0,7.0,71,0.00,,,0.00,weatherlink.com 1.10,2013-04-28 04:39:00,
2013-04-27 21:54:00,48.9,40.0,30.16,NW,321,0.0,4.0,71,0.00,,,0.00,weatherlink.com 1.10,2013-04-28 04:54:00,
2013-04-27 22:09:00,48.7,40.0,30.16,WSW,250,3.0,6.0,72,0.00,,,0.00,weatherlink.com 1.10,2013-04-28 05:09:00,
2013-04-27 22:24:00,49.4,40.0,30.16,NNW,330,2.0,6.0,70,0.00,,,0.00,weatherlink.com 1.10,2013-04-28 05:24:00,
2013-04-27 22:39:00,49.3,40.0,30.16,ENE,65,0.0,7.0,70,0.00,,,0.00,weatherlink.com 1.10,2013-04-28 05:39:00,
2013-04-27 22:54:00,49.5,40.0,30.16,ENE,76,2.0,13.0,69,0.00,,,0.00,weatherlink.com 1.10,2013-04-28 05:54:00,
2013-04-27 23:10:00,49.3,39.0,30.16,NE,44,5.0,9.0,69,0.00,,,0.00,weatherlink.com 1.10,2013-04-28 06:10:00,
2013-04-27 23:25:00,48.9,39.0,30.17,ESE,108,2.0,5.0,70,0.00,,,0.00,weatherlink.com 1.10,2013-04-28 06:25:00,
2013-04-27 23:40:00,48.2,39.0,30.16,ENE,74,6.0,6.0,71,0.00,,,0.00,weatherlink.com 1.10,2013-04-28 06:40:00,
2013-04-27 23:55:00,48.4,39.0,30.16,NE,38,2.0,6.0,71,0.00,,,0.00,weatherlink.com 1.10,2013-04-28 06:55:00,